^^
Station Historical Data
Daily Summary for January 5, 2018 Units:  English    Metric   Both
« Previous Day
Next Day »
Daily Weekly Monthly Yearly Custom
  High: Low: Average:
Temperature: TemperatureF °F 63.0 °F 78.8 °F
Dew Point: DewpointF °F 26.6 °F 39.5 °F
Humidity: Humidity% 10% 30%
Wind Speed: WindSpeedMPHmph 0.0mph 2.3mph
Wind Gust: WindSpeedGustMPHmph - -
Wind- - SE
Pressure: PressureIn in 30.10 in -
Precipitation: 0.00 in    
Historical Graphs
 
 
Tabular Data for January 5, 2018
Time Temperature Dew Point Pressure Wind Wind Speed Wind Gust Humidity Rainfall Rate (Hourly) solar Conditions
TemperatureF °F DewpointF °F PressureIn in Calm     Humidity% HourlyPrecipIn in SolarRadiationWatts/m^2 W/m2 Conditions
00:01 70.9 °F 50.2 °F 30.22 in Calm   3.0 mph 48% 0.00 in 0.0 W/m2
00:06 70.5 °F 50.4 °F 30.22 in Calm   4.0 mph 49% 0.00 in 0.0 W/m2
00:07 70.5 °F 50.4 °F 30.22 in ENE 2.0 mph 4.0 mph 49% 0.00 in 0.0 W/m2
00:11 70.3 °F 50.9 °F 30.22 in Calm   2.0 mph 50% 0.00 in 0.0 W/m2
00:17 70.2 °F 50.7 °F 30.22 in Calm   3.0 mph 50% 0.00 in 0.0 W/m2
00:23 70.0 °F 51.1 °F 30.22 in Calm   1.0 mph 51% 0.00 in 0.0 W/m2
00:28 69.6 °F 50.7 °F 30.22 in Calm   3.0 mph 51% 0.00 in 0.0 W/m2
00:37 69.3 °F 50.4 °F 30.22 in Calm     51% 0.00 in 0.0 W/m2
00:42 69.1 °F 50.2 °F 30.22 in Calm     51% 0.00 in 0.0 W/m2
00:44 69.1 °F 50.2 °F 30.22 in Calm     51% 0.00 in 0.0 W/m2
00:50 68.7 °F 49.8 °F 30.22 in Calm     51% 0.00 in 0.0 W/m2
00:56 68.7 °F 49.8 °F 30.21 in Calm     51% 0.00 in 0.0 W/m2
01:01 68.5 °F 49.6 °F 30.21 in Calm     51% 0.00 in 0.0 W/m2
01:06 68.5 °F 49.6 °F 30.21 in Calm     51% 0.00 in 0.0 W/m2
01:07 68.5 °F 49.6 °F 30.21 in Calm     51% 0.00 in 0.0 W/m2
01:12 68.5 °F 49.6 °F 30.21 in Calm     51% 0.00 in 0.0 W/m2
01:17 68.5 °F 49.6 °F 30.22 in Calm     51% 0.00 in 0.0 W/m2
01:24 68.4 °F 48.9 °F 30.21 in Calm     50% 0.00 in 0.0 W/m2
01:25 68.4 °F 48.9 °F 30.22 in Calm     50% 0.00 in 0.0 W/m2
01:28 68.4 °F 48.9 °F 30.22 in Calm     50% 0.00 in 0.0 W/m2
01:35 68.2 °F 48.9 °F 30.21 in Calm     50% 0.00 in 0.0 W/m2
01:40 67.8 °F 48.6 °F 30.21 in Calm     50% 0.00 in 0.0 W/m2
01:47 67.6 °F 48.9 °F 30.21 in Calm   1.0 mph 51% 0.00 in 0.0 W/m2
01:52 67.5 °F 49.3 °F 30.21 in Calm   3.0 mph 52% 0.00 in 0.0 W/m2
01:53 67.6 °F 48.9 °F 30.21 in Calm   1.0 mph 51% 0.00 in 0.0 W/m2
01:58 67.5 °F 50.2 °F 30.21 in ENE 2.9 mph 3.0 mph 54% 0.00 in 0.0 W/m2
02:03 67.3 °F 49.6 °F 30.21 in Calm   3.0 mph 53% 0.00 in 0.0 W/m2
02:09 66.9 °F 49.3 °F 30.22 in SE 2.0 mph 3.0 mph 53% 0.00 in 0.0 W/m2
02:16 66.7 °F 49.1 °F 30.22 in Calm   1.0 mph 53% 0.00 in 0.0 W/m2
02:22 66.7 °F 49.1 °F 30.22 in ESE 0.9 mph 3.0 mph 53% 0.00 in 0.0 W/m2
02:28 66.7 °F 49.1 °F 30.22 in ENE 0.9 mph 2.0 mph 53% 0.00 in 0.0 W/m2
02:33 66.6 °F 48.4 °F 30.22 in Calm   2.0 mph 52% 0.00 in 0.0 W/m2
02:38 66.6 °F 47.8 °F 30.22 in Calm   1.0 mph 51% 0.00 in 0.0 W/m2
02:44 66.6 °F 47.8 °F 30.22 in Calm   1.0 mph 51% 0.00 in 0.0 W/m2
02:49 66.6 °F 47.8 °F 30.22 in Calm   2.0 mph 51% 0.00 in 0.0 W/m2
02:54 66.4 °F 48.2 °F 30.22 in East 0.9 mph 5.0 mph 52% 0.00 in 0.0 W/m2
03:00 66.4 °F 48.2 °F 30.22 in Calm   3.0 mph 52% 0.00 in 0.0 W/m2
03:10 66.2 °F 48.0 °F 30.22 in ESE 2.0 mph 3.0 mph 52% 0.00 in 0.0 W/m2
03:15 66.2 °F 48.0 °F 30.22 in Calm   2.0 mph 52% 0.00 in 0.0 W/m2
03:16 66.2 °F 48.0 °F 30.22 in Calm   2.0 mph 52% 0.00 in 0.0 W/m2
03:21 66.0 °F 47.8 °F 30.22 in Calm   3.0 mph 52% 0.00 in 0.0 W/m2
03:27 66.0 °F 47.8 °F 30.22 in Calm   3.0 mph 52% 0.00 in 0.0 W/m2
03:32 66.0 °F 47.8 °F 30.22 in Calm   2.0 mph 52% 0.00 in 0.0 W/m2
03:35 66.0 °F 47.8 °F 30.22 in Calm   3.0 mph 52% 0.00 in 0.0 W/m2
03:38 66.0 °F 48.4 °F 30.22 in Calm   2.0 mph 53% 0.00 in 0.0 W/m2
03:42 66.0 °F 48.4 °F 30.22 in ENE 0.9 mph 3.0 mph 53% 0.00 in 0.0 W/m2
03:43 66.0 °F 48.4 °F 30.22 in ENE 0.9 mph 3.0 mph 53% 0.00 in 0.0 W/m2
03:48 66.0 °F 48.4 °F 30.22 in ESE 2.0 mph 3.0 mph 53% 0.00 in 0.0 W/m2
03:50 66.0 °F 48.4 °F 30.22 in Calm   4.0 mph 53% 0.00 in 0.0 W/m2
03:55 66.0 °F 48.4 °F 30.22 in East 2.0 mph 2.0 mph 53% 0.00 in 0.0 W/m2
04:01 66.0 °F 47.8 °F 30.22 in ENE 2.9 mph 3.0 mph 52% 0.00 in 0.0 W/m2
04:06 65.8 °F 47.1 °F 30.22 in SE 2.0 mph 2.0 mph 51% 0.00 in 0.0 W/m2
04:07 65.8 °F 47.1 °F 30.22 in East 2.9 mph 5.0 mph 51% 0.00 in 0.0 W/m2
04:13 65.8 °F 47.7 °F 30.22 in East 0.9 mph 3.0 mph 52% 0.00 in 0.0 W/m2
04:18 65.7 °F 47.5 °F 30.22 in East 0.9 mph 4.0 mph 52% 0.00 in 0.0 W/m2
04:23 65.5 °F 47.8 °F 30.22 in East 2.0 mph 2.0 mph 53% 0.00 in 0.0 W/m2
04:28 65.5 °F 47.8 °F 30.22 in ENE 0.9 mph 3.0 mph 53% 0.00 in 0.0 W/m2
04:33 65.3 °F 47.7 °F 30.22 in East 2.0 mph 4.0 mph 53% 0.00 in 0.0 W/m2
04:36 65.3 °F 47.3 °F 30.22 in East 0.9 mph 3.0 mph 52% 0.00 in 0.0 W/m2
04:38 65.1 °F 47.5 °F 30.22 in ENE 0.9 mph 4.0 mph 53% 0.00 in 0.0 W/m2
04:44 65.1 °F 47.5 °F 30.22 in Calm   3.0 mph 53% 0.00 in 0.0 W/m2
04:47 65.1 °F 47.5 °F 30.22 in ENE 0.9 mph 2.0 mph 53% 0.00 in 0.0 W/m2
04:49 65.1 °F 47.5 °F 30.22 in Calm   3.0 mph 53% 0.00 in 0.0 W/m2
04:51 65.1 °F 47.5 °F 30.22 in Calm   2.0 mph 53% 0.00 in 0.0 W/m2
04:52 64.9 °F 47.5 °F 30.22 in ESE 0.9 mph 2.0 mph 53% 0.00 in 0.0 W/m2
04:57 64.9 °F 47.5 °F 30.23 in Calm   1.0 mph 53% 0.00 in 0.0 W/m2
05:02 64.8 °F 47.3 °F 30.23 in East 0.9 mph 2.0 mph 53% 0.00 in 0.0 W/m2
05:07 64.8 °F 47.3 °F 30.23 in Calm   3.0 mph 53% 0.00 in 0.0 W/m2
05:12 64.8 °F 47.3 °F 30.23 in Calm   4.0 mph 53% 0.00 in 0.0 W/m2
05:17 64.8 °F 47.3 °F 30.24 in Calm   3.0 mph 53% 0.00 in 0.0 W/m2
05:23 64.8 °F 47.3 °F 30.24 in East 0.9 mph 2.0 mph 53% 0.00 in 0.0 W/m2
05:31 64.6 °F 47.5 °F 30.24 in Calm   3.0 mph 54% 0.00 in 0.0 W/m2
05:36 64.4 °F 47.5 °F 30.24 in Calm   3.0 mph 54% 0.00 in 0.0 W/m2
05:41 64.2 °F 47.3 °F 30.25 in Calm   2.0 mph 54% 0.00 in 0.0 W/m2
05:46 64.2 °F 47.3 °F 30.25 in Calm   3.0 mph 54% 0.00 in 0.0 W/m2
05:50 64.0 °F 47.1 °F 30.25 in Calm   2.0 mph 54% 0.00 in 0.0 W/m2
05:55 64.0 °F 47.5 °F 30.25 in East 0.9 mph 1.0 mph 55% 0.00 in 0.0 W/m2
06:02 63.9 °F 47.3 °F 30.25 in Calm   2.0 mph 55% 0.00 in 0.0 W/m2
06:03 64.0 °F 47.5 °F 30.25 in Calm   2.0 mph 55% 0.00 in 0.0 W/m2
06:08 63.9 °F 47.3 °F 30.25 in Calm   1.0 mph 55% 0.00 in 0.0 W/m2
06:14 63.7 °F 47.7 °F 30.25 in ENE 0.9 mph 2.0 mph 56% 0.00 in 0.0 W/m2
06:15 63.7 °F 47.7 °F 30.26 in East 0.9 mph 4.0 mph 56% 0.00 in 0.0 W/m2
06:20 63.7 °F 47.7 °F 30.26 in ESE 2.9 mph 4.0 mph 56% 0.00 in 7.0 W/m2
06:25 63.5 °F 47.5 °F 30.26 in NE 0.9 mph 6.0 mph 56% 0.00 in 9.0 W/m2
06:32 63.3 °F 47.3 °F 30.26 in East 2.9 mph 4.0 mph 56% 0.00 in 11.0 W/m2
06:34 63.3 °F 47.3 °F 30.26 in East 0.9 mph 3.0 mph 56% 0.00 in 12.0 W/m2
06:37 63.3 °F 47.3 °F 30.26 in ENE 0.9 mph 2.0 mph 56% 0.00 in 12.0 W/m2
06:38 63.1 °F 47.1 °F 30.26 in Calm   2.0 mph 56% 0.00 in 14.0 W/m2
06:43 63.1 °F 47.1 °F 30.26 in Calm   4.0 mph 56% 0.00 in 16.0 W/m2
06:48 63.0 °F 46.9 °F 30.27 in East 2.9 mph 4.0 mph 56% 0.00 in 18.0 W/m2
06:55 63.0 °F 46.9 °F 30.27 in East 0.9 mph 2.0 mph 56% 0.00 in 19.0 W/m2
06:59 63.1 °F 47.7 °F 30.27 in Calm   2.0 mph 57% 0.00 in 19.0 W/m2
07:04 63.3 °F 47.3 °F 30.27 in Calm   4.0 mph 56% 0.00 in 21.0 W/m2
07:09 64.0 °F 47.5 °F 30.27 in ENE 0.9 mph 5.0 mph 55% 0.00 in 23.0 W/m2
07:14 64.6 °F 48.0 °F 30.27 in NE 2.0 mph 3.0 mph 55% 0.00 in 25.0 W/m2
07:15 64.8 °F 48.2 °F 30.27 in Calm   3.0 mph 55% 0.00 in 25.0 W/m2
07:20 65.5 °F 48.4 °F 30.27 in ESE 2.0 mph 4.0 mph 54% 0.00 in 25.0 W/m2
07:25 66.4 °F 48.2 °F 30.27 in NNE 4.0 mph 5.0 mph 52% 0.00 in 26.0 W/m2
07:26 66.4 °F 48.2 °F 30.27 in ENE 4.9 mph 5.0 mph 52% 0.00 in 26.0 W/m2
07:31 67.3 °F 48.0 °F 30.28 in North 2.9 mph 6.0 mph 50% 0.00 in 28.0 W/m2
07:36 68.2 °F 47.7 °F 30.27 in NNE 0.9 mph 3.0 mph 48% 0.00 in 28.0 W/m2
07:43 69.1 °F 47.5 °F 30.28 in NE 2.0 mph 7.0 mph 46% 0.00 in 35.0 W/m2
07:48 69.6 °F 47.3 °F 30.28 in ENE 0.9 mph 6.0 mph 45% 0.00 in 127.0 W/m2
07:54 70.3 °F 46.8 °F 30.28 in NNE 2.0 mph 7.0 mph 43% 0.00 in 318.0 W/m2
08:00 71.4 °F 45.1 °F 30.28 in NE 0.9 mph 5.0 mph 39% 0.00 in 380.0 W/m2
08:05 72.7 °F 43.5 °F 30.28 in East 4.0 mph 8.0 mph 35% 0.00 in 399.0 W/m2
08:06 72.9 °F 43.5 °F 30.28 in ENE 2.0 mph 6.0 mph 35% 0.00 in 403.0 W/m2
08:10 73.8 °F 43.7 °F 30.28 in ENE 2.0 mph 5.0 mph 34% 0.00 in 420.0 W/m2
08:11 73.9 °F 43.9 °F 30.28 in NE 2.0 mph 4.0 mph 34% 0.00 in 424.0 W/m2
08:15 74.8 °F 43.0 °F 30.28 in ENE 2.0 mph 8.0 mph 32% 0.00 in 439.0 W/m2
08:20 75.7 °F 43.0 °F 30.29 in NNE 6.0 mph 6.0 mph 31% 0.00 in 461.0 W/m2
08:25 76.5 °F 42.8 °F 30.29 in North 2.9 mph 5.0 mph 30% 0.00 in 480.0 W/m2
08:30 77.2 °F 42.4 °F 30.29 in NNW 2.9 mph 7.0 mph 29% 0.00 in 501.0 W/m2
08:37 77.7 °F 42.1 °F 30.29 in NNW 2.9 mph 7.0 mph 28% 0.00 in 524.0 W/m2
08:38 77.9 °F 42.3 °F 30.29 in NNW 4.0 mph 7.0 mph 28% 0.00 in 527.0 W/m2
08:43 78.3 °F 42.4 °F 30.29 in NNW 2.9 mph 7.0 mph 28% 0.00 in 547.0 W/m2
08:48 78.6 °F 41.9 °F 30.29 in NNW 6.9 mph 7.0 mph 27% 0.00 in 566.0 W/m2
08:52 78.8 °F 42.1 °F 30.29 in North 2.0 mph 4.0 mph 27% 0.00 in 584.0 W/m2
08:55 79.0 °F 41.2 °F 30.29 in North 2.9 mph 7.0 mph 26% 0.00 in 589.0 W/m2
09:00 79.3 °F 41.5 °F 30.29 in ENE 9.0 mph 9.0 mph 26% 0.00 in 612.0 W/m2
09:05 79.5 °F 41.5 °F 30.29 in North 2.0 mph 9.0 mph 26% 0.00 in 633.0 W/m2
09:10 79.7 °F 41.7 °F 30.29 in NNE 4.9 mph 6.0 mph 26% 0.00 in 652.0 W/m2
09:16 80.2 °F 42.3 °F 30.28 in Calm   4.0 mph 26% 0.00 in 670.0 W/m2
09:17 80.2 °F 42.3 °F 30.28 in Calm   4.0 mph 26% 0.00 in 673.0 W/m2
09:23 80.8 °F 42.6 °F 30.28 in North 2.9 mph 5.0 mph 26% 0.00 in 696.0 W/m2
09:30 81.1 °F 41.9 °F 30.29 in NW 2.0 mph 8.0 mph 25% 0.00 in 715.0 W/m2
09:37 81.3 °F 42.1 °F 30.28 in North 6.0 mph 8.0 mph 25% 0.00 in 738.0 W/m2
09:42 81.7 °F 41.4 °F 30.28 in Calm   8.0 mph 24% 0.00 in 756.0 W/m2
09:43 81.7 °F 41.4 °F 30.28 in NNW 0.9 mph 6.0 mph 24% 0.00 in 761.0 W/m2
09:47 82.2 °F 41.9 °F 30.28 in North 2.9 mph 9.0 mph 24% 0.00 in 770.0 W/m2
09:53 82.2 °F 41.9 °F 30.28 in NNW 4.0 mph 6.0 mph 24% 0.00 in 791.0 W/m2
09:59 82.8 °F 41.2 °F 30.27 in NNE 2.0 mph 2.0 mph 23% 0.00 in 812.0 W/m2
10:04 82.9 °F 41.4 °F 30.27 in NNW 6.0 mph 6.0 mph 23% 0.00 in 826.0 W/m2
10:10 83.1 °F 41.5 °F 30.27 in NNE 4.9 mph 12.0 mph 23% 0.00 in 844.0 W/m2
10:16 83.5 °F 41.7 °F 30.27 in North 2.0 mph 7.0 mph 23% 0.00 in 860.0 W/m2
10:18 83.5 °F 41.7 °F 30.27 in NNW 4.0 mph 7.0 mph 23% 0.00 in 865.0 W/m2
10:20 83.7 °F 41.9 °F 30.27 in Calm   5.0 mph 23% 0.00 in 870.0 W/m2
10:26 84.2 °F 40.1 °F 30.27 in North 4.9 mph 7.0 mph 21% 0.00 in 884.0 W/m2
10:32 84.4 °F 40.1 °F 30.27 in NNE 4.9 mph 5.0 mph 21% 0.00 in 898.0 W/m2
10:33 84.6 °F 40.3 °F 30.27 in NNW 8.1 mph 9.0 mph 21% 0.00 in 898.0 W/m2
10:39 84.7 °F 40.5 °F 30.27 in ENE 0.9 mph 5.0 mph 21% 0.00 in 916.0 W/m2
10:44 84.9 °F 39.4 °F 30.27 in NE 2.0 mph 6.0 mph 20% 0.00 in 926.0 W/m2
10:45 84.9 °F 39.4 °F 30.27 in NNW 4.9 mph 8.0 mph 20% 0.00 in 928.0 W/m2
10:47 85.1 °F 39.6 °F 30.27 in North 4.0 mph 11.0 mph 20% 0.00 in 935.0 W/m2
10:52 85.6 °F 39.9 °F 30.26 in NW 6.0 mph 7.0 mph 20% 0.00 in 940.0 W/m2
10:57 85.6 °F 39.9 °F 30.26 in North 6.9 mph 8.0 mph 20% 0.00 in 951.0 W/m2
11:02 85.6 °F 39.9 °F 30.26 in NNE 0.9 mph 6.0 mph 20% 0.00 in 969.0 W/m2
11:03 85.6 °F 38.7 °F 30.26 in WNW 0.9 mph 6.0 mph 19% 0.00 in 970.0 W/m2
11:09 85.6 °F 38.7 °F 30.26 in Calm   3.0 mph 19% 0.00 in 979.0 W/m2
11:15 85.5 °F 38.5 °F 30.26 in NNW 6.0 mph 8.0 mph 19% 0.00 in 991.0 W/m2
11:21 86.2 °F 39.0 °F 30.25 in NE 2.0 mph 5.0 mph 19% 0.00 in 1000.0 W/m2
11:28 86.5 °F 37.9 °F 30.25 in SSE 0.9 mph 4.0 mph 18% 0.00 in 1009.0 W/m2
11:32 86.7 °F 38.1 °F 30.25 in SE 0.9 mph 2.0 mph 18% 0.00 in 1014.0 W/m2
11:38 87.3 °F 38.7 °F 30.25 in East 2.0 mph 8.0 mph 18% 0.00 in 1025.0 W/m2
11:43 87.8 °F 37.6 °F 30.25 in NE 2.0 mph 7.0 mph 17% 0.00 in 1030.0 W/m2
11:50 88.0 °F 37.8 °F 30.25 in NE 6.9 mph 11.0 mph 17% 0.00 in 1034.0 W/m2
11:55 88.2 °F 37.9 °F 30.25 in North 6.9 mph 9.0 mph 17% 0.00 in 1041.0 W/m2
12:01 88.5 °F 36.7 °F 30.25 in NE 6.9 mph 7.0 mph 16% 0.00 in 1051.0 W/m2
12:06 88.7 °F 36.7 °F 30.25 in ESE 4.0 mph 5.0 mph 16% 0.00 in 1053.0 W/m2
12:12 88.9 °F 36.9 °F 30.24 in Calm   3.0 mph 16% 0.00 in 1060.0 W/m2
12:13 88.9 °F 36.9 °F 30.24 in NE 13.0 mph 14.0 mph 16% 0.00 in 1062.0 W/m2
12:18 89.1 °F 37.0 °F 30.24 in NNE 8.1 mph 11.0 mph 16% 0.00 in 1069.0 W/m2
12:24 89.1 °F 35.4 °F 30.23 in Calm   8.0 mph 15% 0.00 in 1067.0 W/m2
12:29 89.2 °F 35.6 °F 30.23 in NNE 2.9 mph 4.0 mph 15% 0.00 in 1069.0 W/m2
12:34 89.6 °F 37.4 °F 30.23 in Calm   6.0 mph 16% 0.00 in 1071.0 W/m2
12:39 90.1 °F 36.3 °F 30.23 in ENE 2.0 mph 9.0 mph 15% 0.00 in 1072.0 W/m2
12:42 90.0 °F 36.1 °F 30.22 in Calm   2.0 mph 15% 0.00 in 1076.0 W/m2
12:50 90.0 °F 36.1 °F 30.22 in North 4.0 mph 8.0 mph 15% 0.00 in 1079.0 W/m2
12:55 90.5 °F 38.1 °F 30.22 in Calm   10.0 mph 16% 0.00 in 1069.0 W/m2
13:00 90.7 °F 36.7 °F 30.21 in NE 4.9 mph 9.0 mph 15% 0.00 in 1076.0 W/m2
13:05 90.9 °F 36.9 °F 30.21 in North 6.9 mph 14.0 mph 15% 0.00 in 1079.0 W/m2
13:07 90.9 °F 36.9 °F 30.21 in NE 2.9 mph 6.0 mph 15% 0.00 in 1088.0 W/m2
13:11 91.2 °F 35.4 °F 30.21 in North 11.0 mph 11.0 mph 14% 0.00 in 1093.0 W/m2
13:16 91.6 °F 35.6 °F 30.21 in North 2.0 mph 14.0 mph 14% 0.00 in 1097.0 W/m2
13:22 91.6 °F 35.6 °F 30.21 in NE 8.9 mph 14.0 mph 14% 0.00 in 1083.0 W/m2
13:33 91.2 °F 35.4 °F 30.19 in SW 2.9 mph 4.0 mph 14% 0.00 in 1157.0 W/m2
13:40 91.0 °F 35.2 °F 30.19 in Calm   12.0 mph 14% 0.00 in 1127.0 W/m2
13:45 91.8 °F 35.8 °F 30.19 in SE 4.9 mph 15.0 mph 14% 0.00 in 1093.0 W/m2
13:51 91.9 °F 34.2 °F 30.19 in NNE 2.0 mph 10.0 mph 13% 0.00 in 1132.0 W/m2
13:56 92.1 °F 34.2 °F 30.19 in WSW 2.0 mph 8.0 mph 13% 0.00 in 1209.0 W/m2
13:58 92.1 °F 34.2 °F 30.18 in South 6.0 mph 9.0 mph 13% 0.00 in 1174.0 W/m2
14:01 92.1 °F 34.2 °F 30.19 in South 11.0 mph 12.0 mph 13% 0.00 in 1134.0 W/m2
14:07 92.7 °F 34.7 °F 30.18 in East 2.0 mph 8.0 mph 13% 0.00 in 1120.0 W/m2
14:13 92.8 °F 34.7 °F 30.18 in SE 2.9 mph 11.0 mph 13% 0.00 in 1051.0 W/m2
14:14 92.8 °F 34.7 °F 30.18 in ESE 4.0 mph 10.0 mph 13% 0.00 in 1046.0 W/m2
14:18 92.8 °F 32.7 °F 30.18 in ESE 0.9 mph 9.0 mph 12% 0.00 in 1041.0 W/m2
14:23 92.7 °F 32.7 °F 30.17 in ESE 4.9 mph 11.0 mph 12% 0.00 in 1034.0 W/m2
14:29 92.7 °F 34.7 °F 30.18 in SE 8.1 mph 11.0 mph 13% 0.00 in 1025.0 W/m2
14:34 93.0 °F 34.9 °F 30.17 in ENE 4.9 mph 10.0 mph 13% 0.00 in 1030.0 W/m2
14:39 93.7 °F 33.4 °F 30.17 in SSE 4.9 mph 8.0 mph 12% 0.00 in 1049.0 W/m2
14:45 93.9 °F 33.6 °F 30.16 in Calm   8.0 mph 12% 0.00 in 1107.0 W/m2
14:52 93.7 °F 33.4 °F 30.16 in East 6.9 mph 8.0 mph 12% 0.00 in 211.0 W/m2
14:55 93.9 °F 33.6 °F 30.16 in ESE 4.9 mph 14.0 mph 12% 0.00 in 1104.0 W/m2
15:00 94.1 °F 31.6 °F 30.15 in NE 2.9 mph 8.0 mph 11% 0.00 in 1079.0 W/m2
15:06 94.3 °F 33.8 °F 30.15 in SSE 4.9 mph 12.0 mph 12% 0.00 in 1021.0 W/m2
15:12 93.9 °F 33.6 °F 30.15 in SE 8.1 mph 10.0 mph 12% 0.00 in 1005.0 W/m2
15:18 93.9 °F 33.6 °F 30.15 in SE 8.1 mph 15.0 mph 12% 0.00 in 1025.0 W/m2
15:19 94.1 °F 33.8 °F 30.14 in ENE 4.9 mph 15.0 mph 12% 0.00 in 1025.0 W/m2
15:23 93.4 °F 33.3 °F 30.14 in SSE 0.9 mph 11.0 mph 12% 0.00 in 246.0 W/m2
15:25 93.0 °F 32.9 °F 30.14 in SSE 8.1 mph 11.0 mph 12% 0.00 in 246.0 W/m2
15:30 93.0 °F 32.9 °F 30.14 in ESE 2.9 mph 6.0 mph 12% 0.00 in 185.0 W/m2
15:35 93.0 °F 32.9 °F 30.14 in SE 2.0 mph 5.0 mph 12% 0.00 in 239.0 W/m2
15:42 92.8 °F 34.7 °F 30.14 in WSW 4.0 mph 7.0 mph 13% 0.00 in 940.0 W/m2
15:49 93.6 °F 33.3 °F 30.13 in South 0.9 mph 5.0 mph 12% 0.00 in 921.0 W/m2
15:54 94.1 °F 31.6 °F 30.13 in WSW 4.9 mph 9.0 mph 11% 0.00 in 904.0 W/m2
15:59 94.3 °F 31.6 °F 30.14 in East 4.0 mph 12.0 mph 11% 0.00 in 144.0 W/m2
16:08 92.3 °F 30.2 °F 30.13 in Calm   6.0 mph 11% 0.00 in 148.0 W/m2
16:14 91.8 °F 29.8 °F 30.13 in ESE 11.0 mph 14.0 mph 11% 0.00 in 793.0 W/m2
16:19 92.5 °F 30.4 °F 30.13 in South 4.9 mph 9.0 mph 11% 0.00 in 786.0 W/m2
16:25 92.8 °F 30.6 °F 30.12 in East 6.0 mph 6.0 mph 11% 0.00 in 287.0 W/m2
16:30 92.8 °F 30.6 °F 30.12 in SE 6.0 mph 6.0 mph 11% 0.00 in 165.0 W/m2
16:36 92.7 °F 30.6 °F 30.12 in SSE 6.0 mph 8.0 mph 11% 0.00 in 206.0 W/m2
16:41 91.8 °F 29.8 °F 30.12 in SE 6.9 mph 10.0 mph 11% 0.00 in 104.0 W/m2
16:44 91.2 °F 29.3 °F 30.12 in ESE 4.0 mph 7.0 mph 11% 0.00 in 186.0 W/m2
16:46 90.9 °F 31.3 °F 30.12 in ENE 0.9 mph 11.0 mph 12% 0.00 in 186.0 W/m2
16:49 90.9 °F 29.1 °F 30.12 in NNE 4.0 mph 6.0 mph 11% 0.00 in 652.0 W/m2
16:52 91.2 °F 29.3 °F 30.12 in SE 6.9 mph 9.0 mph 11% 0.00 in 594.0 W/m2
16:57 91.8 °F 29.8 °F 30.12 in ESE 2.9 mph 6.0 mph 11% 0.00 in 100.0 W/m2
16:59 91.9 °F 30.0 °F 30.12 in SE 6.0 mph 7.0 mph 11% 0.00 in 128.0 W/m2
17:03 91.9 °F 27.7 °F 30.12 in SE 4.0 mph 9.0 mph 10% 0.00 in 98.0 W/m2
17:09 91.9 °F 27.7 °F 30.11 in Calm   8.0 mph 10% 0.00 in 577.0 W/m2
17:14 92.5 °F 28.0 °F 30.11 in NNE 0.9 mph 6.0 mph 10% 0.00 in 561.0 W/m2
17:19 93.0 °F 28.4 °F 30.11 in East 0.9 mph 7.0 mph 10% 0.00 in 540.0 W/m2
17:26 93.4 °F 28.8 °F 30.11 in NNE 2.0 mph 6.0 mph 10% 0.00 in 533.0 W/m2
17:32 93.7 °F 28.9 °F 30.11 in East 4.0 mph 10.0 mph 10% 0.00 in 529.0 W/m2
17:36 93.7 °F 28.9 °F 30.11 in East 0.9 mph 11.0 mph 10% 0.00 in 494.0 W/m2
17:39 93.6 °F 28.8 °F 30.11 in ESE 6.0 mph 12.0 mph 10% 0.00 in 503.0 W/m2
17:43 93.4 °F 28.8 °F 30.11 in SE 2.9 mph 14.0 mph 10% 0.00 in 471.0 W/m2
17:48 92.8 °F 28.2 °F 30.11 in ENE 4.0 mph 10.0 mph 10% 0.00 in 98.0 W/m2
17:53 92.1 °F 27.7 °F 30.11 in NE 4.0 mph 11.0 mph 10% 0.00 in 81.0 W/m2
17:58 91.2 °F 27.1 °F 30.11 in ENE 4.9 mph 8.0 mph 10% 0.00 in 130.0 W/m2
18:04 90.9 °F 29.1 °F 30.11 in East 6.9 mph 8.0 mph 11% 0.00 in 302.0 W/m2
18:10 90.7 °F 26.6 °F 30.11 in NE 2.0 mph 5.0 mph 10% 0.00 in 309.0 W/m2
18:14 91.0 °F 27.0 °F 30.11 in ESE 4.0 mph 8.0 mph 10% 0.00 in 288.0 W/m2
18:15 91.0 °F 27.0 °F 30.10 in ENE 0.9 mph 6.0 mph 10% 0.00 in 241.0 W/m2
18:21 91.6 °F 29.7 °F 30.10 in ENE 4.0 mph 7.0 mph 11% 0.00 in 220.0 W/m2
18:29 91.2 °F 29.3 °F 30.10 in Calm   5.0 mph 11% 0.00 in 44.0 W/m2
18:31 91.2 °F 29.3 °F 30.10 in ESE 2.0 mph 4.0 mph 11% 0.00 in 44.0 W/m2
18:36 91.0 °F 29.3 °F 30.10 in ESE 2.9 mph 3.0 mph 11% 0.00 in 30.0 W/m2
18:43 90.5 °F 26.6 °F 30.10 in Calm   4.0 mph 10% 0.00 in 60.0 W/m2
18:48 90.1 °F 28.6 °F 30.10 in ESE 4.0 mph 5.0 mph 11% 0.00 in 40.0 W/m2
18:53 89.8 °F 32.4 °F 30.10 in SE 2.9 mph 4.0 mph 13% 0.00 in 28.0 W/m2
18:59 89.1 °F 29.8 °F 30.10 in Calm   2.0 mph 12% 0.00 in 26.0 W/m2
19:05 88.5 °F 29.5 °F 30.11 in ENE 0.9 mph 8.0 mph 12% 0.00 in 21.0 W/m2
19:10 88.0 °F 28.9 °F 30.11 in Calm   3.0 mph 12% 0.00 in 14.0 W/m2
19:16 87.4 °F 28.6 °F 30.11 in East 0.9 mph 6.0 mph 12% 0.00 in 12.0 W/m2
19:21 87.1 °F 28.4 °F 30.11 in Calm   6.0 mph 12% 0.00 in 11.0 W/m2
19:26 86.5 °F 27.9 °F 30.11 in Calm   6.0 mph 12% 0.00 in 9.0 W/m2
19:32 86.2 °F 29.7 °F 30.11 in Calm   2.0 mph 13% 0.00 in 5.0 W/m2
19:37 85.8 °F 31.1 °F 30.11 in Calm   1.0 mph 14% 0.00 in 0.0 W/m2
19:41 85.6 °F 29.1 °F 30.11 in Calm   2.0 mph 13% 0.00 in 0.0 W/m2
19:44 85.5 °F 28.9 °F 30.12 in Calm   1.0 mph 13% 0.00 in 0.0 W/m2
19:46 85.3 °F 28.9 °F 30.11 in Calm   1.0 mph 13% 0.00 in 0.0 W/m2
19:49 84.9 °F 28.6 °F 30.12 in ESE 0.9 mph 2.0 mph 13% 0.00 in 0.0 W/m2
19:53 84.7 °F 28.4 °F 30.12 in Calm   1.0 mph 13% 0.00 in 0.0 W/m2
19:58 84.4 °F 30.0 °F 30.12 in Calm   1.0 mph 14% 0.00 in 0.0 W/m2
20:03 83.8 °F 29.5 °F 30.12 in ESE 0.9 mph 2.0 mph 14% 0.00 in 0.0 W/m2
20:09 83.5 °F 29.3 °F 30.12 in Calm   2.0 mph 14% 0.00 in 0.0 W/m2
20:10 83.3 °F 29.1 °F 30.12 in SE 0.9 mph 2.0 mph 14% 0.00 in 0.0 W/m2
20:13 83.1 °F 28.9 °F 30.12 in Calm   3.0 mph 14% 0.00 in 0.0 W/m2
20:27 82.4 °F 28.4 °F 30.12 in SE 4.0 mph 4.0 mph 14% 0.00 in 0.0 W/m2
20:33 82.2 °F 28.2 °F 30.13 in Calm   3.0 mph 14% 0.00 in 0.0 W/m2
20:39 82.0 °F 29.8 °F 30.13 in Calm   2.0 mph 15% 0.00 in 0.0 W/m2
20:44 81.9 °F 28.0 °F 30.13 in Calm   2.0 mph 14% 0.00 in 0.0 W/m2
20:46 81.7 °F 29.5 °F 30.13 in Calm   2.0 mph 15% 0.00 in 0.0 W/m2
20:52 81.3 °F 29.3 °F 30.13 in Calm   2.0 mph 15% 0.00 in 0.0 W/m2
20:58 81.1 °F 29.1 °F 30.13 in SE 0.9 mph 2.0 mph 15% 0.00 in 0.0 W/m2
21:05 81.0 °F 28.9 °F 30.13 in SE 3.0 mph 3.0 mph 15% 0.00 in 0.0 W/m2
21:10 80.6 °F 30.2 °F 30.13 in Calm   2.0 mph 16% 0.00 in 0.0 W/m2
21:16 80.2 °F 30.0 °F 30.13 in ESE 4.9 mph 5.0 mph 16% 0.00 in 0.0 W/m2
21:22 80.2 °F 28.4 °F 30.14 in SE 2.0 mph 4.0 mph 15% 0.00 in 0.0 W/m2
21:27 80.2 °F 28.4 °F 30.13 in Calm   5.0 mph 15% 0.00 in 0.0 W/m2
21:33 80.1 °F 29.8 °F 30.14 in Calm   4.0 mph 16% 0.00 in 0.0 W/m2
21:38 79.5 °F 29.5 °F 30.14 in East 0.9 mph 1.0 mph 16% 0.00 in 0.0 W/m2
21:42 79.3 °F 30.7 °F 30.14 in Calm   1.0 mph 17% 0.00 in 0.0 W/m2
21:48 78.8 °F 30.4 °F 30.14 in Calm   2.0 mph 17% 0.00 in 0.0 W/m2
21:53 78.4 °F 30.0 °F 30.14 in Calm   1.0 mph 17% 0.00 in 0.0 W/m2
21:55 78.3 °F 29.8 °F 30.14 in Calm   1.0 mph 17% 0.00 in 0.0 W/m2
21:58 78.1 °F 29.7 °F 30.14 in Calm   1.0 mph 17% 0.00 in 0.0 W/m2
22:03 77.5 °F 29.3 °F 30.14 in Calm   2.0 mph 17% 0.00 in 0.0 W/m2
22:08 77.2 °F 30.4 °F 30.14 in Calm     18% 0.00 in 0.0 W/m2
22:13 76.6 °F 30.0 °F 30.15 in Calm   2.0 mph 18% 0.00 in 0.0 W/m2
22:18 76.3 °F 29.7 °F 30.15 in Calm   1.0 mph 18% 0.00 in 0.0 W/m2
22:21 76.1 °F 29.5 °F 30.16 in WSW 0.9 mph 2.0 mph 18% 0.00 in 0.0 W/m2
22:29 75.9 °F 34.3 °F 30.16 in Calm   2.0 mph 22% 0.00 in 0.0 W/m2
22:30 76.3 °F 37.9 °F 30.16 in South 4.0 mph 6.0 mph 25% 0.00 in 0.0 W/m2
22:35 76.6 °F 41.2 °F 30.16 in SSW 2.9 mph 5.0 mph 28% 0.00 in 0.0 W/m2
22:37 76.8 °F 42.1 °F 30.16 in South 0.9 mph 5.0 mph 29% 0.00 in 0.0 W/m2
22:43 77.5 °F 44.6 °F 30.16 in SW 6.0 mph 12.0 mph 31% 0.00 in 0.0 W/m2
22:48 77.7 °F 44.6 °F 30.16 in Calm   8.0 mph 31% 0.00 in 0.0 W/m2
22:56 77.9 °F 45.7 °F 30.16 in South 2.0 mph 13.0 mph 32% 0.00 in 0.0 W/m2
23:01 77.9 °F 45.7 °F 30.16 in SSW 4.9 mph 9.0 mph 32% 0.00 in 0.0 W/m2
23:02 77.9 °F 45.7 °F 30.16 in South 6.9 mph 9.0 mph 32% 0.00 in 0.0 W/m2
23:07 77.7 °F 45.5 °F 30.16 in South 6.0 mph 11.0 mph 32% 0.00 in 0.0 W/m2
23:12 77.5 °F 45.3 °F 30.16 in SW 2.9 mph 8.0 mph 32% 0.00 in 0.0 W/m2
23:17 77.7 °F 45.5 °F 30.16 in SE 2.0 mph 6.0 mph 32% 0.00 in 0.0 W/m2
23:23 77.7 °F 44.6 °F 30.16 in SSE 2.9 mph 9.0 mph 31% 0.00 in 0.0 W/m2
23:29 77.5 °F 43.7 °F 30.16 in ESE 2.0 mph 9.0 mph 30% 0.00 in 0.0 W/m2
23:34 77.7 °F 43.9 °F 30.16 in SE 2.0 mph 13.0 mph 30% 0.00 in 0.0 W/m2
23:39 77.7 °F 43.0 °F 30.16 in SSE 6.9 mph 11.0 mph 29% 0.00 in 0.0 W/m2
23:42 77.9 °F 43.2 °F 30.16 in SSE 10.1 mph 13.0 mph 29% 0.00 in 0.0 W/m2
23:49 78.1 °F 43.2 °F 30.16 in SE 6.0 mph 13.0 mph 29% 0.00 in 0.0 W/m2
23:55 77.9 °F 43.2 °F 30.16 in SSE 10.1 mph 12.0 mph 29% 0.00 in 0.0 W/m2
23:59 77.7 °F 43.0 °F 30.16 in SW 4.0 mph 15.0 mph 29% 0.00 in 0.0 W/m2
Olympia, Windhoek, Namibia
Compliments of Weather Underground - 3.5 mb